PWSweather.com
Personal Weather Stations
Station Observations

SkegnessGB

Lat: 53.147585, Lon: 0.345774

Elevation: 18

Station Type: Fine Offset WH3080

http://www.skegnessweather.info/

High Low Average
Temperature 41.5°F5.3°C 33.8°F1.0°C 38.7°F3.7°C
Dew Point 41.3°F5.2°C 31.7°F-0.2°C 38.1°F3.4°C
Winds 14.6 mph 23.5 kmh 3.3 mph 5.3 kmh 7.0 mph SW11.3 kmh SW
Wind Gusts 20.9 mph33.6 kmh 4.9 mph7.9 kmh 11.0 mph17.7 kmh
Humidity 100% 91% 98%
Pressure 29.79 in1008.8 mb 29.33 in993.2 mb -
Precipitation 0.04 in1.0 mm - -
Hour Temp Dew Point Humidity Winds Wind Gusts Pressure Precip Precip Rate Daily Precip Total
12:00 AM 40.3°F4.6°C 40.3°F4.6°C 100% 3.8 mph N6.1 kmh N 5.9 mph9.5 kmh 29.33 in993.2 mb 0.00 in0.0 mm 0.00 in0.0 mm 0.00 in0.0 mm
12:10 AM 40.3°F4.6°C 40.3°F4.6°C 100% 3.9 mph WSW6.3 kmh WSW 4.9 mph7.9 kmh 29.33 in993.2 mb 0.00 in0.0 mm 0.00 in0.0 mm 0.00 in0.0 mm
12:20 AM 40.3°F4.6°C 40.3°F4.6°C 100% 3.3 mph WSW5.3 kmh WSW 4.9 mph7.9 kmh 29.33 in993.2 mb 0.00 in0.0 mm 0.00 in0.0 mm 0.00 in0.0 mm
12:30 AM 40.3°F4.6°C 40.3°F4.6°C 100% 4.2 mph NE6.8 kmh NE 4.9 mph7.9 kmh 29.33 in993.2 mb 0.00 in0.0 mm 0.00 in0.0 mm 0.00 in0.0 mm
12:40 AM 40.3°F4.6°C 40.3°F4.6°C 100% 4.3 mph NNW6.9 kmh NNW 6.6 mph10.6 kmh 29.34 in993.6 mb 0.00 in0.0 mm 0.00 in0.0 mm 0.00 in0.0 mm
12:50 AM 40.1°F4.5°C 40.1°F4.5°C 100% 5.1 mph N8.2 kmh N 7.6 mph12.2 kmh 29.34 in993.6 mb 0.00 in0.0 mm 0.00 in0.0 mm 0.00 in0.0 mm
01:00 AM 40.1°F4.5°C 40.1°F4.5°C 100% 3.7 mph NW6.0 kmh NW 5.9 mph9.5 kmh 29.34 in993.6 mb 0.00 in0.0 mm 0.00 in0.0 mm 0.00 in0.0 mm
01:10 AM 40.1°F4.5°C 40.1°F4.5°C 100% 5.7 mph NW9.2 kmh NW 5.9 mph9.5 kmh 29.34 in993.6 mb 0.00 in0.0 mm 0.00 in0.0 mm 0.00 in0.0 mm
01:20 AM 40.3°F4.6°C 40.3°F4.6°C 100% 3.7 mph N6.0 kmh N 5.9 mph9.5 kmh 29.34 in993.6 mb 0.00 in0.0 mm 0.00 in0.0 mm 0.00 in0.0 mm
01:30 AM 40.5°F4.7°C 40.5°F4.7°C 100% 4.3 mph SW6.9 kmh SW 6.6 mph10.6 kmh 29.34 in993.6 mb 0.00 in0.0 mm 0.00 in0.0 mm 0.00 in0.0 mm
01:40 AM 40.3°F4.6°C 40.3°F4.6°C 100% 4.3 mph SSW6.9 kmh SSW 7.6 mph12.2 kmh 29.35 in993.9 mb 0.00 in0.0 mm 0.00 in0.0 mm 0.00 in0.0 mm
01:50 AM 40.3°F4.6°C 40.3°F4.6°C 100% 3.7 mph N6.0 kmh N 7.6 mph12.2 kmh 29.35 in993.9 mb 0.00 in0.0 mm 0.00 in0.0 mm 0.00 in0.0 mm
02:00 AM 40.1°F4.5°C 40.1°F4.5°C 100% 4.9 mph NNW7.9 kmh NNW 7.6 mph12.2 kmh 29.34 in993.6 mb 0.00 in0.0 mm 0.00 in0.0 mm 0.00 in0.0 mm
02:10 AM 40.1°F4.5°C 40.1°F4.5°C 100% 4.4 mph NNW7.1 kmh NNW 6.6 mph10.6 kmh 29.35 in993.9 mb 0.00 in0.0 mm 0.00 in0.0 mm 0.00 in0.0 mm
02:20 AM 39.9°F4.4°C 39.9°F4.4°C 100% 4.6 mph N7.4 kmh N 5.9 mph9.5 kmh 29.35 in993.9 mb 0.00 in0.0 mm 0.00 in0.0 mm 0.00 in0.0 mm
02:30 AM 39.6°F4.2°C 39.6°F4.2°C 100% 5.8 mph NW9.3 kmh NW 6.6 mph10.6 kmh 29.35 in993.9 mb 0.00 in0.0 mm 0.00 in0.0 mm 0.00 in0.0 mm
02:40 AM 39.6°F4.2°C 39.6°F4.2°C 100% 5.4 mph NNW8.7 kmh NNW 6.6 mph10.6 kmh 29.35 in993.9 mb 0.00 in0.0 mm 0.00 in0.0 mm 0.00 in0.0 mm
02:50 AM 39.6°F4.2°C 39.6°F4.2°C 100% 4.5 mph WSW7.2 kmh WSW 5.9 mph9.5 kmh 29.35 in993.9 mb 0.00 in0.0 mm 0.00 in0.0 mm 0.00 in0.0 mm
03:00 AM 39.6°F4.2°C 39.6°F4.2°C 100% 5.6 mph NW9.0 kmh NW 9.1 mph14.6 kmh 29.34 in993.6 mb 0.00 in0.0 mm 0.00 in0.0 mm 0.00 in0.0 mm
03:10 AM 39.6°F4.2°C 39.6°F4.2°C 100% 7.3 mph NW11.7 kmh NW 9.1 mph14.6 kmh 29.34 in993.6 mb 0.00 in0.0 mm 0.00 in0.0 mm 0.00 in0.0 mm
03:20 AM 39.4°F4.1°C 39.4°F4.1°C 100% 5.0 mph NW8.0 kmh NW 7.6 mph12.2 kmh 29.35 in993.9 mb 0.00 in0.0 mm 0.00 in0.0 mm 0.00 in0.0 mm
03:30 AM 39.4°F4.1°C 39.4°F4.1°C 100% 4.6 mph NNW7.4 kmh NNW 6.6 mph10.6 kmh 29.35 in993.9 mb 0.00 in0.0 mm 0.00 in0.0 mm 0.00 in0.0 mm
03:40 AM 39.4°F4.1°C 39.4°F4.1°C 100% 4.7 mph W7.6 kmh W 5.9 mph9.5 kmh 29.35 in993.9 mb 0.00 in0.0 mm 0.00 in0.0 mm 0.00 in0.0 mm
03:50 AM 39.4°F4.1°C 39.4°F4.1°C 100% 6.1 mph NW9.8 kmh NW 9.1 mph14.6 kmh 29.36 in994.2 mb 0.00 in0.0 mm 0.00 in0.0 mm 0.00 in0.0 mm
04:00 AM 39.4°F4.1°C 39.4°F4.1°C 100% 6.0 mph N9.7 kmh N 11.8 mph19.0 kmh 29.36 in994.2 mb 0.00 in0.0 mm 0.00 in0.0 mm 0.00 in0.0 mm
04:10 AM 39.4°F4.1°C 39.4°F4.1°C 100% 5.8 mph NW9.3 kmh NW 10.8 mph17.4 kmh 29.35 in993.9 mb 0.00 in0.0 mm 0.00 in0.0 mm 0.00 in0.0 mm
04:20 AM 39.4°F4.1°C 39.4°F4.1°C 100% 7.0 mph NNW11.3 kmh NNW 12.5 mph20.1 kmh 29.36 in994.2 mb 0.00 in0.0 mm 0.00 in0.0 mm 0.00 in0.0 mm
04:30 AM 39.2°F4.0°C 39.2°F4.0°C 100% 6.0 mph N9.7 kmh N 6.6 mph10.6 kmh 29.36 in994.2 mb 0.00 in0.0 mm 0.00 in0.0 mm 0.00 in0.0 mm
04:40 AM 39.2°F4.0°C 39.2°F4.0°C 100% 5.7 mph N9.2 kmh N 7.6 mph12.2 kmh 29.36 in994.2 mb 0.00 in0.0 mm 0.00 in0.0 mm 0.00 in0.0 mm
04:50 AM 39.2°F4.0°C 39.2°F4.0°C 100% 7.4 mph NW11.9 kmh NW 14.3 mph23.0 kmh 29.36 in994.2 mb 0.00 in0.0 mm 0.00 in0.0 mm 0.00 in0.0 mm
05:00 AM 39.2°F4.0°C 39.2°F4.0°C 100% 6.0 mph NW9.7 kmh NW 7.6 mph12.2 kmh 29.37 in994.6 mb 0.00 in0.0 mm 0.00 in0.0 mm 0.00 in0.0 mm
05:10 AM 39.4°F4.1°C 39.4°F4.1°C 100% 6.0 mph N9.7 kmh N 6.6 mph10.6 kmh 29.37 in994.6 mb 0.00 in0.0 mm 0.00 in0.0 mm 0.00 in0.0 mm
05:20 AM 39.4°F4.1°C 39.4°F4.1°C 100% 6.5 mph NE10.5 kmh NE 8.4 mph13.5 kmh 29.37 in994.6 mb 0.00 in0.0 mm 0.00 in0.0 mm 0.00 in0.0 mm
05:30 AM 39.2°F4.0°C 39.2°F4.0°C 100% 5.4 mph NW8.7 kmh NW 10.1 mph16.3 kmh 29.37 in994.6 mb 0.00 in0.0 mm 0.00 in0.0 mm 0.00 in0.0 mm
05:40 AM 39.2°F4.0°C 39.2°F4.0°C 100% 6.4 mph NW10.3 kmh NW 11.8 mph19.0 kmh 29.37 in994.6 mb 0.00 in0.0 mm 0.00 in0.0 mm 0.00 in0.0 mm
05:50 AM 39.2°F4.0°C 39.2°F4.0°C 100% 7.8 mph N12.6 kmh N 10.8 mph17.4 kmh 29.37 in994.6 mb 0.00 in0.0 mm 0.00 in0.0 mm 0.00 in0.0 mm
06:00 AM 39.2°F4.0°C 39.2°F4.0°C 100% 7.8 mph NE12.6 kmh NE 10.1 mph16.3 kmh 29.38 in994.9 mb 0.00 in0.0 mm 0.00 in0.0 mm 0.00 in0.0 mm
06:10 AM 39.2°F4.0°C 39.2°F4.0°C 100% 7.3 mph N11.7 kmh N 11.8 mph19.0 kmh 29.38 in994.9 mb 0.00 in0.0 mm 0.00 in0.0 mm 0.00 in0.0 mm
06:20 AM 39.2°F4.0°C 39.2°F4.0°C 100% 7.6 mph NW12.2 kmh NW 10.8 mph17.4 kmh 29.39 in995.3 mb 0.00 in0.0 mm 0.00 in0.0 mm 0.00 in0.0 mm
06:30 AM 39.2°F4.0°C 39.2°F4.0°C 100% 7.3 mph N11.7 kmh N 10.8 mph17.4 kmh 29.39 in995.3 mb 0.00 in0.0 mm 0.00 in0.0 mm 0.00 in0.0 mm
06:40 AM 39.0°F3.9°C 39.0°F3.9°C 100% 5.8 mph NNW9.3 kmh NNW 9.1 mph14.6 kmh 29.39 in995.3 mb 0.00 in0.0 mm 0.00 in0.0 mm 0.00 in0.0 mm
06:50 AM 39.2°F4.0°C 39.2°F4.0°C 100% 6.4 mph WSW10.3 kmh WSW 10.1 mph16.3 kmh 29.40 in995.6 mb 0.00 in0.0 mm 0.00 in0.0 mm 0.00 in0.0 mm
07:00 AM 39.2°F4.0°C 39.2°F4.0°C 100% 6.7 mph SW10.8 kmh SW 8.4 mph13.5 kmh 29.40 in995.6 mb 0.00 in0.0 mm 0.00 in0.0 mm 0.00 in0.0 mm
07:10 AM 39.2°F4.0°C 39.2°F4.0°C 100% 6.1 mph S9.8 kmh S 7.6 mph12.2 kmh 29.40 in995.6 mb 0.00 in0.0 mm 0.00 in0.0 mm 0.00 in0.0 mm
07:20 AM 39.2°F4.0°C 39.2°F4.0°C 100% 6.1 mph S9.8 kmh S 9.1 mph14.6 kmh 29.40 in995.6 mb 0.00 in0.0 mm 0.00 in0.0 mm 0.00 in0.0 mm
07:30 AM 39.2°F4.0°C 39.2°F4.0°C 100% 6.6 mph N10.6 kmh N 9.1 mph14.6 kmh 29.40 in995.6 mb 0.00 in0.0 mm 0.00 in0.0 mm 0.00 in0.0 mm
07:40 AM 39.2°F4.0°C 39.2°F4.0°C 100% 4.2 mph WSW6.8 kmh WSW 8.4 mph13.5 kmh 29.41 in995.9 mb 0.01 in0.3 mm 0.06 in1.5 mm 0.01 in0.3 mm
07:50 AM 39.4°F4.1°C 39.4°F4.1°C 100% 5.4 mph NNW8.7 kmh NNW 8.4 mph13.5 kmh 29.42 in996.3 mb 0.01 in0.3 mm 0.00 in0.0 mm 0.01 in0.3 mm
08:00 AM 39.4°F4.1°C 39.4°F4.1°C 100% 6.4 mph NW10.3 kmh NW 13.3 mph21.4 kmh 29.42 in996.3 mb 0.01 in0.3 mm 0.00 in0.0 mm 0.01 in0.3 mm
08:10 AM 39.4°F4.1°C 39.4°F4.1°C 100% 5.1 mph S8.2 kmh S 6.6 mph10.6 kmh 29.42 in996.3 mb 0.01 in0.3 mm 0.00 in0.0 mm 0.01 in0.3 mm
08:20 AM 39.4°F4.1°C 39.4°F4.1°C 100% 5.8 mph N9.3 kmh N 8.4 mph13.5 kmh 29.42 in996.3 mb 0.01 in0.3 mm 0.00 in0.0 mm 0.01 in0.3 mm
08:30 AM 39.2°F4.0°C 39.2°F4.0°C 100% 5.4 mph W8.7 kmh W 8.4 mph13.5 kmh 29.43 in996.6 mb 0.01 in0.3 mm 0.00 in0.0 mm 0.01 in0.3 mm
08:40 AM 39.4°F4.1°C 39.4°F4.1°C 100% 6.0 mph NW9.7 kmh NW 8.4 mph13.5 kmh 29.44 in997.0 mb 0.00 in0.0 mm 0.00 in0.0 mm 0.01 in0.3 mm
08:50 AM 39.4°F4.1°C 39.4°F4.1°C 100% 6.8 mph W10.9 kmh W 11.8 mph19.0 kmh 29.45 in997.3 mb 0.00 in0.0 mm 0.00 in0.0 mm 0.01 in0.3 mm
09:00 AM 39.4°F4.1°C 39.4°F4.1°C 100% 5.1 mph W8.2 kmh W 6.6 mph10.6 kmh 29.45 in997.3 mb 0.00 in0.0 mm 0.00 in0.0 mm 0.01 in0.3 mm
09:10 AM 39.4°F4.1°C 39.4°F4.1°C 100% 8.0 mph N12.9 kmh N 9.1 mph14.6 kmh 29.45 in997.3 mb 0.00 in0.0 mm 0.00 in0.0 mm 0.01 in0.3 mm
09:20 AM 39.4°F4.1°C 39.4°F4.1°C 100% 7.1 mph NNW11.4 kmh NNW 9.1 mph14.6 kmh 29.46 in997.6 mb 0.00 in0.0 mm 0.00 in0.0 mm 0.01 in0.3 mm
09:30 AM 39.4°F4.1°C 39.4°F4.1°C 100% 6.6 mph SSW10.6 kmh SSW 8.4 mph13.5 kmh 29.46 in997.6 mb 0.00 in0.0 mm 0.00 in0.0 mm 0.01 in0.3 mm
09:40 AM 39.4°F4.1°C 39.4°F4.1°C 100% 6.6 mph NNW10.6 kmh NNW 10.1 mph16.3 kmh 29.46 in997.6 mb 0.00 in0.0 mm 0.00 in0.0 mm 0.01 in0.3 mm
09:50 AM 39.6°F4.2°C 39.6°F4.2°C 100% 5.4 mph N8.7 kmh N 7.6 mph12.2 kmh 29.46 in997.6 mb 0.00 in0.0 mm 0.00 in0.0 mm 0.01 in0.3 mm
10:00 AM 39.9°F4.4°C 39.9°F4.4°C 100% 5.6 mph NW9.0 kmh NW 7.6 mph12.2 kmh 29.47 in998.0 mb 0.00 in0.0 mm 0.00 in0.0 mm 0.01 in0.3 mm
10:10 AM 39.9°F4.4°C 39.9°F4.4°C 100% 6.5 mph NW10.5 kmh NW 8.4 mph13.5 kmh 29.47 in998.0 mb 0.00 in0.0 mm 0.00 in0.0 mm 0.01 in0.3 mm
10:20 AM 40.1°F4.5°C 40.1°F4.5°C 100% 6.2 mph WSW10.0 kmh WSW 7.6 mph12.2 kmh 29.48 in998.3 mb 0.00 in0.0 mm 0.00 in0.0 mm 0.01 in0.3 mm
10:30 AM 40.3°F4.6°C 40.3°F4.6°C 100% 6.2 mph NNE10.0 kmh NNE 8.4 mph13.5 kmh 29.49 in998.6 mb 0.00 in0.0 mm 0.00 in0.0 mm 0.01 in0.3 mm
10:40 AM 40.5°F4.7°C 40.5°F4.7°C 100% 5.8 mph NW9.3 kmh NW 10.8 mph17.4 kmh 29.49 in998.6 mb 0.00 in0.0 mm 0.00 in0.0 mm 0.01 in0.3 mm
10:50 AM 40.5°F4.7°C 40.5°F4.7°C 100% 7.0 mph N11.3 kmh N 10.8 mph17.4 kmh 29.50 in999.0 mb 0.00 in0.0 mm 0.00 in0.0 mm 0.01 in0.3 mm
11:00 AM 40.3°F4.6°C 40.3°F4.6°C 100% 6.3 mph NNW10.1 kmh NNW 8.4 mph13.5 kmh 29.51 in999.3 mb 0.00 in0.0 mm 0.00 in0.0 mm 0.01 in0.3 mm
11:10 AM 40.3°F4.6°C 40.3°F4.6°C 100% 8.1 mph E13.0 kmh E 10.8 mph17.4 kmh 29.51 in999.3 mb 0.00 in0.0 mm 0.00 in0.0 mm 0.01 in0.3 mm
11:20 AM 40.5°F4.7°C 40.5°F4.7°C 100% 5.8 mph W9.3 kmh W 7.6 mph12.2 kmh 29.51 in999.3 mb 0.00 in0.0 mm 0.00 in0.0 mm 0.01 in0.3 mm
11:30 AM 40.8°F4.9°C 40.8°F4.9°C 100% 5.7 mph W9.2 kmh W 8.4 mph13.5 kmh 29.52 in999.7 mb 0.00 in0.0 mm 0.00 in0.0 mm 0.01 in0.3 mm
11:40 AM 41.0°F5.0°C 41.0°F5.0°C 100% 5.4 mph NNW8.7 kmh NNW 10.1 mph16.3 kmh 29.52 in999.7 mb 0.00 in0.0 mm 0.00 in0.0 mm 0.01 in0.3 mm
11:50 AM 41.0°F5.0°C 41.0°F5.0°C 100% 5.3 mph WSW8.5 kmh WSW 7.6 mph12.2 kmh 29.53 in1000.0 mb 0.00 in0.0 mm 0.00 in0.0 mm 0.01 in0.3 mm
12:00 PM 41.0°F5.0°C 41.0°F5.0°C 100% 4.9 mph SW7.9 kmh SW 5.9 mph9.5 kmh 29.53 in1000.0 mb 0.00 in0.0 mm 0.00 in0.0 mm 0.01 in0.3 mm
12:10 PM 40.8°F4.9°C 40.8°F4.9°C 100% 5.9 mph NW9.5 kmh NW 8.4 mph13.5 kmh 29.53 in1000.0 mb 0.00 in0.0 mm 0.00 in0.0 mm 0.01 in0.3 mm
12:20 PM 41.5°F5.3°C 41.3°F5.2°C 99% 6.9 mph NW11.1 kmh NW 9.1 mph14.6 kmh 29.54 in1000.3 mb 0.00 in0.0 mm 0.00 in0.0 mm 0.01 in0.3 mm
12:30 PM 41.2°F5.1°C 40.7°F4.8°C 98% 5.6 mph N9.0 kmh N 8.4 mph13.5 kmh 29.54 in1000.3 mb 0.00 in0.0 mm 0.00 in0.0 mm 0.01 in0.3 mm
12:40 PM 40.8°F4.9°C 40.0°F4.4°C 97% 5.8 mph N9.3 kmh N 10.1 mph16.3 kmh 29.55 in1000.7 mb 0.00 in0.0 mm 0.00 in0.0 mm 0.01 in0.3 mm
12:50 PM 40.6°F4.8°C 39.9°F4.4°C 97% 6.1 mph N9.8 kmh N 9.1 mph14.6 kmh 29.55 in1000.7 mb 0.00 in0.0 mm 0.00 in0.0 mm 0.01 in0.3 mm
01:00 PM 40.5°F4.7°C 39.7°F4.3°C 97% 7.8 mph NNW12.6 kmh NNW 8.4 mph13.5 kmh 29.55 in1000.7 mb 0.00 in0.0 mm 0.00 in0.0 mm 0.01 in0.3 mm
01:10 PM 40.5°F4.7°C 39.7°F4.3°C 97% 8.2 mph NNW13.2 kmh NNW 9.1 mph14.6 kmh 29.56 in1001.0 mb 0.00 in0.0 mm 0.00 in0.0 mm 0.01 in0.3 mm
01:20 PM 40.3°F4.6°C 39.5°F4.2°C 97% 6.5 mph NNW10.5 kmh NNW 7.6 mph12.2 kmh 29.56 in1001.0 mb 0.00 in0.0 mm 0.00 in0.0 mm 0.01 in0.3 mm
01:30 PM 40.6°F4.8°C 39.9°F4.4°C 97% 6.3 mph N10.1 kmh N 12.5 mph20.1 kmh 29.56 in1001.0 mb 0.00 in0.0 mm 0.00 in0.0 mm 0.01 in0.3 mm
01:40 PM 40.6°F4.8°C 39.9°F4.4°C 97% 6.5 mph NNW10.5 kmh NNW 8.4 mph13.5 kmh 29.56 in1001.0 mb 0.00 in0.0 mm 0.00 in0.0 mm 0.01 in0.3 mm
01:50 PM 40.6°F4.8°C 39.9°F4.4°C 97% 8.2 mph NW13.2 kmh NW 11.8 mph19.0 kmh 29.56 in1001.0 mb 0.00 in0.0 mm 0.00 in0.0 mm 0.01 in0.3 mm
02:00 PM 40.8°F4.9°C 39.8°F4.3°C 96% 5.2 mph NW8.4 kmh NW 8.4 mph13.5 kmh 29.57 in1001.4 mb 0.00 in0.0 mm 0.00 in0.0 mm 0.01 in0.3 mm
02:10 PM 40.6°F4.8°C 39.6°F4.2°C 96% 6.8 mph NW10.9 kmh NW 10.8 mph17.4 kmh 29.57 in1001.4 mb 0.00 in0.0 mm 0.00 in0.0 mm 0.01 in0.3 mm
02:20 PM 40.5°F4.7°C 39.4°F4.1°C 96% 6.5 mph N10.5 kmh N 10.8 mph17.4 kmh 29.57 in1001.4 mb 0.00 in0.0 mm 0.00 in0.0 mm 0.01 in0.3 mm
02:30 PM 40.5°F4.7°C 39.4°F4.1°C 96% 7.8 mph NE12.6 kmh NE 12.5 mph20.1 kmh 29.57 in1001.4 mb 0.00 in0.0 mm 0.00 in0.0 mm 0.01 in0.3 mm
02:40 PM 40.3°F4.6°C 39.2°F4.0°C 96% 9.2 mph NNE14.8 kmh NNE 10.8 mph17.4 kmh 29.57 in1001.4 mb 0.00 in0.0 mm 0.00 in0.0 mm 0.01 in0.3 mm
02:50 PM 39.9°F4.4°C 38.9°F3.8°C 96% 9.7 mph N15.6 kmh N 10.8 mph17.4 kmh 29.58 in1001.7 mb 0.00 in0.0 mm 0.00 in0.0 mm 0.01 in0.3 mm
03:00 PM 39.7°F4.3°C 38.7°F3.7°C 96% 8.6 mph N13.8 kmh N 10.8 mph17.4 kmh 29.59 in1002.0 mb 0.00 in0.0 mm 0.00 in0.0 mm 0.01 in0.3 mm
03:10 PM 39.6°F4.2°C 38.5°F3.6°C 96% 7.9 mph N12.7 kmh N 9.1 mph14.6 kmh 29.59 in1002.0 mb 0.00 in0.0 mm 0.00 in0.0 mm 0.01 in0.3 mm
03:20 PM 39.4°F4.1°C 38.3°F3.5°C 96% 8.7 mph N14.0 kmh N 13.3 mph21.4 kmh 29.59 in1002.0 mb 0.00 in0.0 mm 0.00 in0.0 mm 0.01 in0.3 mm
03:30 PM 39.2°F4.0°C 38.4°F3.6°C 97% 7.9 mph N12.7 kmh N 10.8 mph17.4 kmh 29.59 in1002.0 mb 0.00 in0.0 mm 0.00 in0.0 mm 0.01 in0.3 mm
03:40 PM 39.0°F3.9°C 38.2°F3.4°C 97% 8.3 mph N13.4 kmh N 13.3 mph21.4 kmh 29.60 in1002.4 mb 0.00 in0.0 mm 0.00 in0.0 mm 0.01 in0.3 mm
03:50 PM 39.0°F3.9°C 38.2°F3.4°C 97% 8.4 mph N13.5 kmh N 13.3 mph21.4 kmh 29.60 in1002.4 mb 0.00 in0.0 mm 0.00 in0.0 mm 0.01 in0.3 mm
04:00 PM 38.8°F3.8°C 38.1°F3.4°C 97% 8.4 mph N13.5 kmh N 10.8 mph17.4 kmh 29.61 in1002.7 mb 0.00 in0.0 mm 0.00 in0.0 mm 0.01 in0.3 mm
04:10 PM 38.7°F3.7°C 37.9°F3.3°C 97% 6.4 mph N10.3 kmh N 11.8 mph19.0 kmh 29.61 in1002.7 mb 0.00 in0.0 mm 0.00 in0.0 mm 0.01 in0.3 mm
04:20 PM 38.7°F3.7°C 37.9°F3.3°C 97% 6.7 mph NNW10.8 kmh NNW 11.8 mph19.0 kmh 29.61 in1002.7 mb 0.00 in0.0 mm 0.00 in0.0 mm 0.01 in0.3 mm
04:30 PM 38.5°F3.6°C 37.7°F3.2°C 97% 7.6 mph NW12.2 kmh NW 11.8 mph19.0 kmh 29.61 in1002.7 mb 0.00 in0.0 mm 0.00 in0.0 mm 0.01 in0.3 mm
04:40 PM 38.5°F3.6°C 37.7°F3.2°C 97% 9.6 mph N15.4 kmh N 11.8 mph19.0 kmh 29.62 in1003.0 mb 0.00 in0.0 mm 0.00 in0.0 mm 0.01 in0.3 mm
04:50 PM 38.3°F3.5°C 37.5°F3.1°C 97% 8.8 mph NNE14.2 kmh NNE 13.3 mph21.4 kmh 29.63 in1003.4 mb 0.00 in0.0 mm 0.00 in0.0 mm 0.01 in0.3 mm
05:00 PM 37.9°F3.3°C 37.2°F2.9°C 97% 9.1 mph NNE14.6 kmh NNE 13.3 mph21.4 kmh 29.63 in1003.4 mb 0.00 in0.0 mm 0.00 in0.0 mm 0.01 in0.3 mm
05:10 PM 37.8°F3.2°C 37.0°F2.8°C 97% 8.6 mph W13.8 kmh W 12.5 mph20.1 kmh 29.63 in1003.4 mb 0.00 in0.0 mm 0.00 in0.0 mm 0.01 in0.3 mm
05:20 PM 37.8°F3.2°C 37.0°F2.8°C 97% 8.5 mph NNE13.7 kmh NNE 15.0 mph24.1 kmh 29.64 in1003.7 mb 0.00 in0.0 mm 0.00 in0.0 mm 0.01 in0.3 mm
05:30 PM 37.6°F3.1°C 36.8°F2.7°C 97% 11.1 mph N17.9 kmh N 13.3 mph21.4 kmh 29.64 in1003.7 mb 0.00 in0.0 mm 0.00 in0.0 mm 0.01 in0.3 mm
05:40 PM 37.4°F3.0°C 36.6°F2.6°C 97% 9.1 mph N14.6 kmh N 11.8 mph19.0 kmh 29.65 in1004.1 mb 0.00 in0.0 mm 0.00 in0.0 mm 0.01 in0.3 mm
05:50 PM 37.4°F3.0°C 36.6°F2.6°C 97% 9.7 mph N15.6 kmh N 13.3 mph21.4 kmh 29.65 in1004.1 mb 0.00 in0.0 mm 0.00 in0.0 mm 0.01 in0.3 mm
06:00 PM 37.4°F3.0°C 36.6°F2.6°C 97% 11.7 mph N18.8 kmh N 16.0 mph25.7 kmh 29.66 in1004.4 mb 0.00 in0.0 mm 0.00 in0.0 mm 0.01 in0.3 mm
06:10 PM 37.4°F3.0°C 36.6°F2.6°C 97% 10.3 mph N16.6 kmh N 12.5 mph20.1 kmh 29.66 in1004.4 mb 0.00 in0.0 mm 0.00 in0.0 mm 0.01 in0.3 mm
06:20 PM 37.4°F3.0°C 36.6°F2.6°C 97% 8.0 mph NW12.9 kmh NW 10.8 mph17.4 kmh 29.67 in1004.7 mb 0.00 in0.0 mm 0.00 in0.0 mm 0.01 in0.3 mm
06:30 PM 37.2°F2.9°C 36.2°F2.3°C 96% 8.4 mph WNW13.5 kmh WNW 11.8 mph19.0 kmh 29.68 in1005.1 mb 0.00 in0.0 mm 0.00 in0.0 mm 0.01 in0.3 mm
06:40 PM 37.2°F2.9°C 36.2°F2.3°C 96% 10.0 mph NNE16.1 kmh NNE 14.3 mph23.0 kmh 29.68 in1005.1 mb 0.00 in0.0 mm 0.00 in0.0 mm 0.01 in0.3 mm
06:50 PM 37.0°F2.8°C 36.0°F2.2°C 96% 8.1 mph NE13.0 kmh NE 10.8 mph17.4 kmh 29.68 in1005.1 mb 0.00 in0.0 mm 0.00 in0.0 mm 0.01 in0.3 mm
07:00 PM 37.0°F2.8°C 35.7°F2.1°C 95% 9.8 mph W15.8 kmh W 14.3 mph23.0 kmh 29.69 in1005.4 mb 0.00 in0.0 mm 0.00 in0.0 mm 0.01 in0.3 mm
07:10 PM 37.0°F2.8°C 35.7°F2.1°C 95% 5.5 mph W8.9 kmh W 8.4 mph13.5 kmh 29.69 in1005.4 mb 0.00 in0.0 mm 0.00 in0.0 mm 0.01 in0.3 mm
07:20 PM 36.9°F2.7°C 35.6°F2.0°C 95% 10.5 mph N16.9 kmh N 15.0 mph24.1 kmh 29.69 in1005.4 mb 0.00 in0.0 mm 0.00 in0.0 mm 0.01 in0.3 mm
07:30 PM 36.7°F2.6°C 35.4°F1.9°C 95% 9.6 mph NW15.4 kmh NW 13.3 mph21.4 kmh 29.69 in1005.4 mb 0.00 in0.0 mm 0.00 in0.0 mm 0.01 in0.3 mm
07:40 PM 36.5°F2.5°C 34.9°F1.6°C 94% 8.7 mph NNW14.0 kmh NNW 12.5 mph20.1 kmh 29.70 in1005.8 mb 0.00 in0.0 mm 0.00 in0.0 mm 0.01 in0.3 mm
07:50 PM 36.5°F2.5°C 34.9°F1.6°C 94% 9.2 mph NNE14.8 kmh NNE 12.5 mph20.1 kmh 29.70 in1005.8 mb 0.00 in0.0 mm 0.00 in0.0 mm 0.01 in0.3 mm
08:00 PM 36.3°F2.4°C 34.8°F1.6°C 94% 10.4 mph N16.7 kmh N 16.7 mph26.9 kmh 29.71 in1006.1 mb 0.00 in0.0 mm 0.00 in0.0 mm 0.01 in0.3 mm
08:10 PM 36.3°F2.4°C 34.8°F1.6°C 94% 8.8 mph ESE14.2 kmh ESE 13.3 mph21.4 kmh 29.71 in1006.1 mb 0.00 in0.0 mm 0.00 in0.0 mm 0.01 in0.3 mm
08:20 PM 36.1°F2.3°C 34.6°F1.4°C 94% 10.3 mph N16.6 kmh N 15.0 mph24.1 kmh 29.71 in1006.1 mb 0.00 in0.0 mm 0.00 in0.0 mm 0.01 in0.3 mm
08:30 PM 36.1°F2.3°C 34.6°F1.4°C 94% 9.4 mph NE15.1 kmh NE 12.5 mph20.1 kmh 29.72 in1006.4 mb 0.00 in0.0 mm 0.00 in0.0 mm 0.01 in0.3 mm
08:40 PM 36.1°F2.3°C 34.6°F1.4°C 94% 7.1 mph NW11.4 kmh NW 10.1 mph16.3 kmh 29.72 in1006.4 mb 0.00 in0.0 mm 0.00 in0.0 mm 0.01 in0.3 mm
08:50 PM 35.8°F2.1°C 34.2°F1.2°C 94% 8.5 mph N13.7 kmh N 15.0 mph24.1 kmh 29.73 in1006.8 mb 0.00 in0.0 mm 0.00 in0.0 mm 0.01 in0.3 mm
09:00 PM 35.4°F1.9°C 33.9°F1.1°C 94% 11.0 mph ENE17.7 kmh ENE 17.5 mph28.2 kmh 29.73 in1006.8 mb 0.00 in0.0 mm 0.00 in0.0 mm 0.01 in0.3 mm
09:10 PM 35.2°F1.8°C 33.7°F0.9°C 94% 12.2 mph NW19.6 kmh NW 17.5 mph28.2 kmh 29.73 in1006.8 mb 0.01 in0.3 mm 0.06 in1.5 mm 0.02 in0.5 mm
09:20 PM 35.2°F1.8°C 34.0°F1.1°C 95% 10.8 mph W17.4 kmh W 15.0 mph24.1 kmh 29.73 in1006.8 mb 0.01 in0.3 mm 0.00 in0.0 mm 0.02 in0.5 mm
09:30 PM 35.1°F1.7°C 33.8°F1.0°C 95% 9.7 mph N15.6 kmh N 16.7 mph26.9 kmh 29.74 in1007.1 mb 0.01 in0.3 mm 0.00 in0.0 mm 0.02 in0.5 mm
09:40 PM 35.1°F1.7°C 33.8°F1.0°C 95% 8.2 mph NNE13.2 kmh NNE 14.3 mph23.0 kmh 29.75 in1007.5 mb 0.01 in0.3 mm 0.00 in0.0 mm 0.02 in0.5 mm
09:50 PM 35.2°F1.8°C 34.0°F1.1°C 95% 10.9 mph N17.5 kmh N 17.5 mph28.2 kmh 29.75 in1007.5 mb 0.02 in0.5 mm 0.06 in1.5 mm 0.04 in1.0 mm
10:00 PM 35.4°F1.9°C 34.1°F1.2°C 95% 8.2 mph NW13.2 kmh NW 11.8 mph19.0 kmh 29.75 in1007.5 mb 0.02 in0.5 mm 0.00 in0.0 mm 0.04 in1.0 mm
10:10 PM 35.4°F1.9°C 33.9°F1.1°C 94% 10.7 mph N17.2 kmh N 20.9 mph33.6 kmh 29.76 in1007.8 mb 0.01 in0.3 mm 0.00 in0.0 mm 0.04 in1.0 mm
10:20 PM 35.2°F1.8°C 33.7°F0.9°C 94% 13.1 mph N21.1 kmh N 20.9 mph33.6 kmh 29.76 in1007.8 mb 0.01 in0.3 mm 0.00 in0.0 mm 0.04 in1.0 mm
10:30 PM 34.9°F1.6°C 33.1°F0.6°C 93% 12.0 mph NNE19.3 kmh NNE 16.0 mph25.7 kmh 29.76 in1007.8 mb 0.01 in0.3 mm 0.00 in0.0 mm 0.04 in1.0 mm
10:40 PM 34.9°F1.6°C 33.1°F0.6°C 93% 11.1 mph N17.9 kmh N 20.2 mph32.5 kmh 29.77 in1008.1 mb 0.01 in0.3 mm 0.00 in0.0 mm 0.04 in1.0 mm
10:50 PM 34.9°F1.6°C 33.1°F0.6°C 93% 8.7 mph NNE14.0 kmh NNE 16.0 mph25.7 kmh 29.77 in1008.1 mb 0.00 in0.0 mm 0.00 in0.0 mm 0.04 in1.0 mm
11:00 PM 35.1°F1.7°C 33.2°F0.7°C 93% 9.2 mph NE14.8 kmh NE 10.8 mph17.4 kmh 29.77 in1008.1 mb 0.00 in0.0 mm 0.00 in0.0 mm 0.04 in1.0 mm
11:10 PM 34.9°F1.6°C 32.8°F0.4°C 92% 8.1 mph N13.0 kmh N 8.4 mph13.5 kmh 29.77 in1008.1 mb 0.00 in0.0 mm 0.00 in0.0 mm 0.04 in1.0 mm
11:20 PM 34.7°F1.5°C 32.6°F0.3°C 92% 9.8 mph N15.8 kmh N 11.8 mph19.0 kmh 29.78 in1008.5 mb 0.00 in0.0 mm 0.00 in0.0 mm 0.04 in1.0 mm
11:30 PM 34.5°F1.4°C 32.4°F0.2°C 92% 9.9 mph N15.9 kmh N 16.0 mph25.7 kmh 29.78 in1008.5 mb 0.00 in0.0 mm 0.00 in0.0 mm 0.04 in1.0 mm
11:40 PM 34.5°F1.4°C 32.2°F0.1°C 91% 11.9 mph NW19.2 kmh NW 16.0 mph25.7 kmh 29.78 in1008.5 mb 0.00 in0.0 mm 0.00 in0.0 mm 0.04 in1.0 mm
11:50 PM 33.8°F1.0°C 31.7°F-0.2°C 92% 14.6 mph NNE23.5 kmh NNE 18.5 mph29.8 kmh 29.79 in1008.8 mb 0.00 in0.0 mm 0.00 in0.0 mm 0.04 in1.0 mm